Hawarden, Canada
Current Conditions -  °F | °C
As of 8:00 PM on Saturday 22 Nov 2014 (Local Time) from CYXE Reporting Station
Light Snow Light Snow  
Wind Chill:   Ceiling: 900
Heat Index: 19°   Visibility: 2.5mi
Dew Point: 16°   Wind: 25mph
Humidity: 86%   Direction: 40°NE
Pressure: 29.26"   Gusts: 35mph
Location:  51.42°N, 106.6°W
Report Text: CYXE 230200Z 04022G30KT 2 1/2SM -SN DRSN BKN009 OVC030 M07/M09 A2926 RMK SC5SC3 SLP939
Loading
Personal Weather Stations






























Interactive Weather Map New forecast layout! Learn more

10-Day Weather Forecast

Advertisements
Track Severe Weather on mobile